sensor_id;sensor_type;location;lat;lon;timestamp;pressure;altitude;pressure_sealevel;temperature;humidity
56174;BME280;42058;52.308;20.924;2023-05-02T00:02:11;100648.02;;;11.56;50.92
56174;BME280;42058;52.308;20.924;2023-05-02T00:04:38;100646.32;;;11.54;50.73
56174;BME280;42058;52.308;20.924;2023-05-02T00:07:04;100640.38;;;11.53;51.02
56174;BME280;42058;52.308;20.924;2023-05-02T00:09:31;100644.99;;;11.51;51.01
56174;BME280;42058;52.308;20.924;2023-05-02T00:11:57;100640.11;;;11.50;51.19
56174;BME280;42058;52.308;20.924;2023-05-02T00:14:24;100643.12;;;11.49;51.38
56174;BME280;42058;52.308;20.924;2023-05-02T00:16:50;100635.92;;;11.48;51.00
56174;BME280;42058;52.308;20.924;2023-05-02T00:19:17;100635.09;;;11.47;51.37
56174;BME280;42058;52.308;20.924;2023-05-02T00:21:46;100632.30;;;11.46;51.19
56174;BME280;42058;52.308;20.924;2023-05-02T00:24:13;100630.23;;;11.45;51.53
56174;BME280;42058;52.308;20.924;2023-05-02T00:26:39;100625.91;;;11.43;51.74
56174;BME280;42058;52.308;20.924;2023-05-02T00:29:06;100620.83;;;11.42;51.46
56174;BME280;42058;52.308;20.924;2023-05-02T00:31:33;100617.86;;;11.41;51.63
56174;BME280;42058;52.308;20.924;2023-05-02T00:34:00;100619.28;;;11.40;51.78
56174;BME280;42058;52.308;20.924;2023-05-02T00:36:27;100616.88;;;11.39;51.67
56174;BME280;42058;52.308;20.924;2023-05-02T00:38:53;100614.63;;;11.38;51.66
56174;BME280;42058;52.308;20.924;2023-05-02T00:41:19;100613.08;;;11.36;51.91
56174;BME280;42058;52.308;20.924;2023-05-02T00:43:46;100610.48;;;11.35;52.07
56174;BME280;42058;52.308;20.924;2023-05-02T00:46:13;100610.34;;;11.33;51.83
56174;BME280;42058;52.308;20.924;2023-05-02T00:48:40;100610.71;;;11.32;51.63
56174;BME280;42058;52.308;20.924;2023-05-02T00:51:06;100604.95;;;11.31;51.92
56174;BME280;42058;52.308;20.924;2023-05-02T00:53:34;100605.33;;;11.30;51.85
56174;BME280;42058;52.308;20.924;2023-05-02T00:56:01;100603.05;;;11.30;51.84
56174;BME280;42058;52.308;20.924;2023-05-02T00:58:28;100606.05;;;11.29;52.10
56174;BME280;42058;52.308;20.924;2023-05-02T01:05:32;100594.11;;;11.29;52.07
56174;BME280;42058;52.308;20.924;2023-05-02T01:08:18;100596.46;;;11.27;52.20
56174;BME280;42058;52.308;20.924;2023-05-02T01:11:13;100592.10;;;11.26;52.28
56174;BME280;42058;52.308;20.924;2023-05-02T01:13:40;100592.48;;;11.24;52.27
56174;BME280;42058;52.308;20.924;2023-05-02T01:16:10;100592.56;;;11.21;52.24
56174;BME280;42058;52.308;20.924;2023-05-02T01:18:40;100591.96;;;11.18;52.43
56174;BME280;42058;52.308;20.924;2023-05-02T01:21:08;100591.50;;;11.15;52.94
56174;BME280;42058;52.308;20.924;2023-05-02T01:27:14;100581.73;;;11.13;52.74
56174;BME280;42058;52.308;20.924;2023-05-02T01:29:45;100583.42;;;11.09;52.54
56174;BME280;42058;52.308;20.924;2023-05-02T01:32:15;100585.73;;;11.07;52.39
56174;BME280;42058;52.308;20.924;2023-05-02T01:34:43;100589.65;;;11.05;52.91
56174;BME280;42058;52.308;20.924;2023-05-02T01:37:12;100589.89;;;11.03;52.84
56174;BME280;42058;52.308;20.924;2023-05-02T01:39:41;100588.37;;;11.01;52.96
56174;BME280;42058;52.308;20.924;2023-05-02T01:42:09;100588.60;;;10.99;52.77
56174;BME280;42058;52.308;20.924;2023-05-02T01:44:37;100577.27;;;10.95;53.03
56174;BME280;42058;52.308;20.924;2023-05-02T01:47:06;100574.33;;;10.93;53.39
56174;BME280;42058;52.308;20.924;2023-05-02T01:49:35;100571.39;;;10.92;53.14
56174;BME280;42058;52.308;20.924;2023-05-02T01:52:04;100567.73;;;10.90;53.11
56174;BME280;42058;52.308;20.924;2023-05-02T01:54:34;100570.60;;;10.88;53.28
56174;BME280;42058;52.308;20.924;2023-05-02T01:57:05;100569.77;;;10.87;53.32
56174;BME280;42058;52.308;20.924;2023-05-02T01:59:33;100570.50;;;10.85;53.30
56174;BME280;42058;52.308;20.924;2023-05-02T02:02:01;100567.05;;;10.83;53.60
56174;BME280;42058;52.308;20.924;2023-05-02T02:04:28;100569.86;;;10.83;53.69
56174;BME280;42058;52.308;20.924;2023-05-02T02:07:01;100560.63;;;10.80;53.33
56174;BME280;42058;52.308;20.924;2023-05-02T02:09:29;100561.20;;;10.78;53.94
56174;BME280;42058;52.308;20.924;2023-05-02T02:12:42;100555.98;;;10.77;53.55
56174;BME280;42058;52.308;20.924;2023-05-02T02:15:28;100551.80;;;10.75;53.79
56174;BME280;42058;52.308;20.924;2023-05-02T02:18:03;100552.86;;;10.75;53.61
56174;BME280;42058;52.308;20.924;2023-05-02T02:20:31;100548.13;;;10.75;53.91
56174;BME280;42058;52.308;20.924;2023-05-02T02:22:59;100550.92;;;10.75;54.11
56174;BME280;42058;52.308;20.924;2023-05-02T02:25:28;100547.77;;;10.74;54.14
56174;BME280;42058;52.308;20.924;2023-05-02T02:27:55;100550.22;;;10.75;54.22
56174;BME280;42058;52.308;20.924;2023-05-02T02:30:22;100545.85;;;10.74;54.30
56174;BME280;42058;52.308;20.924;2023-05-02T02:32:48;100548.30;;;10.75;54.18
56174;BME280;42058;52.308;20.924;2023-05-02T02:35:15;100542.55;;;10.73;54.22
56174;BME280;42058;52.308;20.924;2023-05-02T02:37:53;100545.02;;;10.73;54.43
56174;BME280;42058;52.308;20.924;2023-05-02T02:40:30;100543.78;;;10.73;54.21
56174;BME280;42058;52.308;20.924;2023-05-02T02:43:07;100543.61;;;10.73;54.40
56174;BME280;42058;52.308;20.924;2023-05-02T02:45:39;100547.84;;;10.72;54.43
56174;BME280;42058;52.308;20.924;2023-05-02T02:48:33;100549.61;;;10.72;54.59
56174;BME280;42058;52.308;20.924;2023-05-02T02:56:27;100543.52;;;10.70;54.51
56174;BME280;42058;52.308;20.924;2023-05-02T02:59:03;100535.36;;;10.67;54.70
56174;BME280;42058;52.308;20.924;2023-05-02T03:01:31;100533.22;;;10.68;54.61
56174;BME280;42058;52.308;20.924;2023-05-02T03:04:00;100533.59;;;10.67;54.98
56174;BME280;42058;52.308;20.924;2023-05-02T03:06:29;100535.17;;;10.66;54.88
56174;BME280;42058;52.308;20.924;2023-05-02T03:08:57;100533.11;;;10.65;55.08
56174;BME280;42058;52.308;20.924;2023-05-02T03:11:26;100534.91;;;10.64;55.07
56174;BME280;42058;52.308;20.924;2023-05-02T03:13:56;100534.23;;;10.63;54.91
56174;BME280;42058;52.308;20.924;2023-05-02T03:16:39;100536.19;;;10.62;55.04
56174;BME280;42058;52.308;20.924;2023-05-02T03:19:08;100532.39;;;10.59;55.35
56174;BME280;42058;52.308;20.924;2023-05-02T03:21:34;100534.36;;;10.57;55.62
56174;BME280;42058;52.308;20.924;2023-05-02T03:24:05;100534.91;;;10.56;55.38
56174;BME280;42058;52.308;20.924;2023-05-02T03:26:32;100534.94;;;10.55;55.55
56174;BME280;42058;52.308;20.924;2023-05-02T03:28:59;100533.55;;;10.54;55.86
56174;BME280;42058;52.308;20.924;2023-05-02T03:31:28;100534.84;;;10.52;55.94
56174;BME280;42058;52.308;20.924;2023-05-02T03:33:55;100537.66;;;10.51;56.11
56174;BME280;42058;52.308;20.924;2023-05-02T03:36:22;100536.98;;;10.50;56.36
56174;BME280;42058;52.308;20.924;2023-05-02T03:38:49;100535.60;;;10.50;56.35
56174;BME280;42058;52.308;20.924;2023-05-02T03:41:16;100535.26;;;10.49;56.43
56174;BME280;42058;52.308;20.924;2023-05-02T03:43:43;100532.50;;;10.47;56.55
56174;BME280;42058;52.308;20.924;2023-05-02T03:46:09;100532.16;;;10.47;56.23
56174;BME280;42058;52.308;20.924;2023-05-02T03:48:37;100536.40;;;10.46;56.65
56174;BME280;42058;52.308;20.924;2023-05-02T03:51:05;100535.53;;;10.45;56.49
56174;BME280;42058;52.308;20.924;2023-05-02T03:53:36;100534.49;;;10.45;56.37
56174;BME280;42058;52.308;20.924;2023-05-02T03:56:04;100537.84;;;10.44;56.92
56174;BME280;42058;52.308;20.924;2023-05-02T03:58:35;100537.32;;;10.44;56.92
56174;BME280;42058;52.308;20.924;2023-05-02T04:01:01;100538.39;;;10.43;57.25
56174;BME280;42058;52.308;20.924;2023-05-02T04:03:28;100539.45;;;10.42;57.08
56174;BME280;42058;52.308;20.924;2023-05-02T04:05:57;100540.31;;;10.42;57.16
56174;BME280;42058;52.308;20.924;2023-05-02T04:08:26;100540.85;;;10.43;57.34
56174;BME280;42058;52.308;20.924;2023-05-02T04:10:52;100540.30;;;10.44;57.35
56174;BME280;42058;52.308;20.924;2023-05-02T04:13:19;100540.49;;;10.43;57.48
56174;BME280;42058;52.308;20.924;2023-05-02T04:15:47;100540.85;;;10.43;57.67
56174;BME280;42058;52.308;20.924;2023-05-02T04:18:17;100541.89;;;10.43;57.62
56174;BME280;42058;52.308;20.924;2023-05-02T04:20:43;100541.20;;;10.43;57.47
56174;BME280;42058;52.308;20.924;2023-05-02T04:23:15;100542.21;;;10.45;58.07
56174;BME280;42058;52.308;20.924;2023-05-02T04:25:53;100544.28;;;10.46;58.14
56174;BME280;42058;52.308;20.924;2023-05-02T04:28:23;100540.05;;;10.47;58.14
56174;BME280;42058;52.308;20.924;2023-05-02T04:30:49;100539.50;;;10.48;58.24
56174;BME280;42058;52.308;20.924;2023-05-02T04:33:17;100542.24;;;10.50;58.10
56174;BME280;42058;52.308;20.924;2023-05-02T04:35:44;100539.05;;;10.52;58.21
56174;BME280;42058;52.308;20.924;2023-05-02T04:38:13;100540.05;;;10.54;58.54
56174;BME280;42058;52.308;20.924;2023-05-02T04:40:40;100538.08;;;10.56;58.44
56174;BME280;42058;52.308;20.924;2023-05-02T04:43:07;100538.71;;;10.58;58.66
56174;BME280;42058;52.308;20.924;2023-05-02T04:45:48;100540.26;;;10.61;58.70
56174;BME280;42058;52.308;20.924;2023-05-02T04:48:22;100542.11;;;10.63;58.61
56174;BME280;42058;52.308;20.924;2023-05-02T04:50:48;100540.14;;;10.65;58.46
56174;BME280;42058;52.308;20.924;2023-05-02T04:53:15;100535.87;;;10.68;58.78
56174;BME280;42058;52.308;20.924;2023-05-02T04:55:42;100537.19;;;10.70;58.89
56174;BME280;42058;52.308;20.924;2023-05-02T04:58:08;100539.92;;;10.73;59.07
56174;BME280;42058;52.308;20.924;2023-05-02T05:00:35;100539.69;;;10.76;58.88
56174;BME280;42058;52.308;20.924;2023-05-02T05:03:05;100537.31;;;10.79;58.80
56174;BME280;42058;52.308;20.924;2023-05-02T05:05:32;100535.98;;;10.84;58.90
56174;BME280;42058;52.308;20.924;2023-05-02T05:07:59;100533.21;;;10.88;59.12
56174;BME280;42058;52.308;20.924;2023-05-02T05:10:29;100536.58;;;10.94;59.29
56174;BME280;42058;52.308;20.924;2023-05-02T05:12:56;100537.10;;;11.01;59.25
56174;BME280;42058;52.308;20.924;2023-05-02T05:15:22;100534.80;;;11.08;59.05
56174;BME280;42058;52.308;20.924;2023-05-02T05:17:55;100532.13;;;11.16;59.20
56174;BME280;42058;52.308;20.924;2023-05-02T05:20:21;100532.63;;;11.23;59.09
56174;BME280;42058;52.308;20.924;2023-05-02T05:22:49;100531.33;;;11.32;59.17
56174;BME280;42058;52.308;20.924;2023-05-02T05:25:17;100524.38;;;11.42;59.16
56174;BME280;42058;52.308;20.924;2023-05-02T05:27:45;100523.59;;;11.51;59.37
56174;BME280;42058;52.308;20.924;2023-05-02T05:30:11;100522.73;;;11.63;59.06
56174;BME280;42058;52.308;20.924;2023-05-02T05:32:39;100519.45;;;11.72;59.24
56174;BME280;42058;52.308;20.924;2023-05-02T05:35:16;100521.57;;;11.85;59.31
56174;BME280;42058;52.308;20.924;2023-05-02T05:37:42;100524.20;;;11.97;59.48
56174;BME280;42058;52.308;20.924;2023-05-02T05:40:12;100520.45;;;12.11;59.57
56174;BME280;42058;52.308;20.924;2023-05-02T05:42:41;100519.80;;;12.25;59.42
56174;BME280;42058;52.308;20.924;2023-05-02T05:45:13;100522.13;;;12.40;59.47
56174;BME280;42058;52.308;20.924;2023-05-02T05:47:42;100521.70;;;12.53;59.32
56174;BME280;42058;52.308;20.924;2023-05-02T05:50:09;100518.96;;;12.67;59.33
56174;BME280;42058;52.308;20.924;2023-05-02T05:52:36;100516.98;;;12.79;59.29
56174;BME280;42058;52.308;20.924;2023-05-02T05:55:06;100517.90;;;12.93;59.67
56174;BME280;42058;52.308;20.924;2023-05-02T05:57:32;100515.95;;;13.09;59.82
56174;BME280;42058;52.308;20.924;2023-05-02T05:59:59;100515.65;;;13.22;60.02
56174;BME280;42058;52.308;20.924;2023-05-02T06:02:26;100514.93;;;13.38;59.75
56174;BME280;42058;52.308;20.924;2023-05-02T06:04:53;100513.15;;;13.52;59.54
56174;BME280;42058;52.308;20.924;2023-05-02T06:07:24;100510.13;;;13.67;59.73
56174;BME280;42058;52.308;20.924;2023-05-02T06:09:50;100514.58;;;13.80;60.08
56174;BME280;42058;52.308;20.924;2023-05-02T06:12:17;100513.60;;;13.92;59.78
56174;BME280;42058;52.308;20.924;2023-05-02T06:14:44;100513.65;;;14.04;59.25
56174;BME280;42058;52.308;20.924;2023-05-02T06:17:11;100510.89;;;14.16;59.18
56174;BME280;42058;52.308;20.924;2023-05-02T06:19:38;100510.48;;;14.26;59.19
56174;BME280;42058;52.308;20.924;2023-05-02T06:22:06;100513.36;;;14.37;59.46
56174;BME280;42058;52.308;20.924;2023-05-02T06:24:32;100513.65;;;14.48;59.44
56174;BME280;42058;52.308;20.924;2023-05-02T06:26:59;100512.36;;;14.58;59.46
56174;BME280;42058;52.308;20.924;2023-05-02T06:29:26;100513.52;;;14.68;59.21
56174;BME280;42058;52.308;20.924;2023-05-02T06:31:55;100515.41;;;14.78;59.08
56174;BME280;42058;52.308;20.924;2023-05-02T06:34:22;100515.74;;;14.91;59.10
56174;BME280;42058;52.308;20.924;2023-05-02T06:36:55;100510.27;;;15.03;59.12
56174;BME280;42058;52.308;20.924;2023-05-02T06:39:22;100512.13;;;15.21;59.12
56174;BME280;42058;52.308;20.924;2023-05-02T06:41:48;100509.67;;;15.40;59.31
56174;BME280;42058;52.308;20.924;2023-05-02T06:44:16;100513.22;;;15.60;58.78
56174;BME280;42058;52.308;20.924;2023-05-02T06:46:43;100515.02;;;15.79;58.66
56174;BME280;42058;52.308;20.924;2023-05-02T06:49:09;100518.34;;;15.99;58.42
56174;BME280;42058;52.308;20.924;2023-05-02T06:51:36;100514.40;;;16.18;57.90
56174;BME280;42058;52.308;20.924;2023-05-02T06:54:02;100518.81;;;16.37;57.32
56174;BME280;42058;52.308;20.924;2023-05-02T06:56:29;100519.69;;;16.55;57.34
56174;BME280;42058;52.308;20.924;2023-05-02T06:58:56;100514.03;;;16.72;57.71
56174;BME280;42058;52.308;20.924;2023-05-02T07:01:22;100516.40;;;16.89;56.96
56174;BME280;42058;52.308;20.924;2023-05-02T07:03:49;100518.96;;;17.04;56.52
56174;BME280;42058;52.308;20.924;2023-05-02T07:06:16;100520.63;;;17.20;56.45
56174;BME280;42058;52.308;20.924;2023-05-02T07:08:42;100518.66;;;17.37;56.56
56174;BME280;42058;52.308;20.924;2023-05-02T07:11:09;100516.27;;;17.55;56.29
56174;BME280;42058;52.308;20.924;2023-05-02T07:13:35;100510.15;;;17.73;55.97
56174;BME280;42058;52.308;20.924;2023-05-02T07:16:02;100510.93;;;17.92;56.21
56174;BME280;42058;52.308;20.924;2023-05-02T07:18:29;100505.32;;;18.07;55.40
56174;BME280;42058;52.308;20.924;2023-05-02T07:20:55;100502.95;;;18.20;55.17
56174;BME280;42058;52.308;20.924;2023-05-02T07:23:22;100506.89;;;18.35;54.98
56174;BME280;42058;52.308;20.924;2023-05-02T07:25:48;100507.89;;;18.52;55.09
56174;BME280;42058;52.308;20.924;2023-05-02T07:28:15;100505.77;;;18.70;54.63
56174;BME280;42058;52.308;20.924;2023-05-02T07:30:41;100507.51;;;18.89;54.59
56174;BME280;42058;52.308;20.924;2023-05-02T07:33:08;100506.29;;;19.09;53.62
56174;BME280;42058;52.308;20.924;2023-05-02T07:35:34;100505.13;;;19.28;53.24
56174;BME280;42058;52.308;20.924;2023-05-02T07:38:01;100505.27;;;19.49;52.71
56174;BME280;42058;52.308;20.924;2023-05-02T07:40:27;100505.02;;;19.70;52.72
56174;BME280;42058;52.308;20.924;2023-05-02T07:42:54;100509.14;;;19.90;51.53
56174;BME280;42058;52.308;20.924;2023-05-02T07:45:20;100507.07;;;20.05;50.80
56174;BME280;42058;52.308;20.924;2023-05-02T07:47:47;100501.13;;;20.20;50.53
56174;BME280;42058;52.308;20.924;2023-05-02T07:50:13;100503.26;;;20.33;50.35
56174;BME280;42058;52.308;20.924;2023-05-02T07:52:40;100511.05;;;20.45;49.33
56174;BME280;42058;52.308;20.924;2023-05-02T07:55:06;100514.11;;;20.55;49.45
56174;BME280;42058;52.308;20.924;2023-05-02T07:57:33;100514.21;;;20.65;49.23
56174;BME280;42058;52.308;20.924;2023-05-02T08:00:00;100517.94;;;20.76;49.05
56174;BME280;42058;52.308;20.924;2023-05-02T08:02:27;100518.60;;;20.87;48.91
56174;BME280;42058;52.308;20.924;2023-05-02T08:04:54;100517.48;;;20.98;48.35
56174;BME280;42058;52.308;20.924;2023-05-02T08:07:20;100522.71;;;21.08;48.35
56174;BME280;42058;52.308;20.924;2023-05-02T08:09:47;100526.35;;;21.20;48.04
56174;BME280;42058;52.308;20.924;2023-05-02T08:12:13;100521.92;;;21.32;47.83
56174;BME280;42058;52.308;20.924;2023-05-02T08:14:40;100527.73;;;21.46;47.69
56174;BME280;42058;52.308;20.924;2023-05-02T08:17:06;100527.23;;;21.58;47.74
56174;BME280;42058;52.308;20.924;2023-05-02T08:19:32;100527.02;;;21.69;47.34
56174;BME280;42058;52.308;20.924;2023-05-02T08:21:59;100527.13;;;21.78;47.39
56174;BME280;42058;52.308;20.924;2023-05-02T08:24:26;100527.59;;;21.88;47.49
56174;BME280;42058;52.308;20.924;2023-05-02T08:26:53;100526.71;;;21.98;46.81
56174;BME280;42058;52.308;20.924;2023-05-02T08:29:19;100526.06;;;22.07;47.16
56174;BME280;42058;52.308;20.924;2023-05-02T08:31:46;100533.15;;;22.15;47.00
56174;BME280;42058;52.308;20.924;2023-05-02T08:34:12;100535.39;;;22.24;46.85
56174;BME280;42058;52.308;20.924;2023-05-02T08:36:38;100538.25;;;22.31;46.78
56174;BME280;42058;52.308;20.924;2023-05-02T08:39:05;100532.19;;;22.38;46.57
56174;BME280;42058;52.308;20.924;2023-05-02T08:41:33;100531.52;;;22.47;46.45
56174;BME280;42058;52.308;20.924;2023-05-02T08:44:01;100539.85;;;22.56;46.46
56174;BME280;42058;52.308;20.924;2023-05-02T08:46:29;100540.42;;;22.62;46.20
56174;BME280;42058;52.308;20.924;2023-05-02T08:48:57;100542.71;;;22.70;46.44
56174;BME280;42058;52.308;20.924;2023-05-02T08:51:28;100538.59;;;22.77;46.08
56174;BME280;42058;52.308;20.924;2023-05-02T08:53:56;100540.54;;;22.84;45.94
56174;BME280;42058;52.308;20.924;2023-05-02T08:56:23;100544.33;;;22.93;46.03
56174;BME280;42058;52.308;20.924;2023-05-02T08:58:50;100535.73;;;23.03;46.50
56174;BME280;42058;52.308;20.924;2023-05-02T09:01:18;100534.51;;;23.14;46.75
56174;BME280;42058;52.308;20.924;2023-05-02T09:03:47;100540.18;;;23.27;46.35
56174;BME280;42058;52.308;20.924;2023-05-02T09:06:21;100541.67;;;23.35;46.03
56174;BME280;42058;52.308;20.924;2023-05-02T09:08:49;100539.17;;;23.39;45.66
56174;BME280;42058;52.308;20.924;2023-05-02T09:11:18;100539.14;;;23.40;45.07
56174;BME280;42058;52.308;20.924;2023-05-02T09:13:46;100546.82;;;23.45;45.35
56174;BME280;42058;52.308;20.924;2023-05-02T09:16:21;100550.90;;;23.50;44.86
56174;BME280;42058;52.308;20.924;2023-05-02T09:18:53;100551.16;;;23.46;44.38
56174;BME280;42058;52.308;20.924;2023-05-02T09:21:22;100551.98;;;23.41;44.23
56174;BME280;42058;52.308;20.924;2023-05-02T09:23:52;100545.64;;;23.39;44.64
56174;BME280;42058;52.308;20.924;2023-05-02T09:26:26;100550.48;;;23.37;44.72
56174;BME280;42058;52.308;20.924;2023-05-02T09:29:00;100557.72;;;23.31;44.42
56174;BME280;42058;52.308;20.924;2023-05-02T09:31:31;100558.75;;;23.25;44.69
56174;BME280;42058;52.308;20.924;2023-05-02T09:34:13;100566.09;;;23.15;44.45
56174;BME280;42058;52.308;20.924;2023-05-02T09:36:40;100572.52;;;23.06;44.68
56174;BME280;42058;52.308;20.924;2023-05-02T09:39:09;100576.11;;;22.99;44.94
56174;BME280;42058;52.308;20.924;2023-05-02T09:41:44;100577.75;;;22.94;45.17
56174;BME280;42058;52.308;20.924;2023-05-02T09:44:13;100581.05;;;22.90;45.21
56174;BME280;42058;52.308;20.924;2023-05-02T09:46:47;100584.98;;;22.88;45.29
56174;BME280;42058;52.308;20.924;2023-05-02T09:49:14;100584.90;;;22.87;45.93
56174;BME280;42058;52.308;20.924;2023-05-02T09:51:45;100591.31;;;22.87;45.84
56174;BME280;42058;52.308;20.924;2023-05-02T09:54:12;100591.27;;;22.86;45.79
56174;BME280;42058;52.308;20.924;2023-05-02T09:56:56;100598.60;;;22.82;45.92
56174;BME280;42058;52.308;20.924;2023-05-02T09:59:23;100596.67;;;22.80;45.89
56174;BME280;42058;52.308;20.924;2023-05-02T10:01:54;100600.98;;;22.77;46.32
56174;BME280;42058;52.308;20.924;2023-05-02T10:04:23;100601.55;;;22.74;45.91
56174;BME280;42058;52.308;20.924;2023-05-02T10:06:50;100604.23;;;22.72;45.95
56174;BME280;42058;52.308;20.924;2023-05-02T10:09:21;100602.73;;;22.71;46.08
56174;BME280;42058;52.308;20.924;2023-05-02T10:11:53;100614.61;;;22.70;46.45
56174;BME280;42058;52.308;20.924;2023-05-02T10:14:21;100616.64;;;22.69;46.34
56174;BME280;42058;52.308;20.924;2023-05-02T10:16:54;100616.91;;;22.68;46.42
56174;BME280;42058;52.308;20.924;2023-05-02T10:19:28;100614.48;;;22.67;46.70
56174;BME280;42058;52.308;20.924;2023-05-02T10:21:56;100621.33;;;22.63;46.57
56174;BME280;42058;52.308;20.924;2023-05-02T10:24:25;100625.11;;;22.61;46.91
56174;BME280;42058;52.308;20.924;2023-05-02T10:26:52;100630.25;;;22.59;47.35
56174;BME280;42058;52.308;20.924;2023-05-02T10:29:19;100633.17;;;22.58;47.68
56174;BME280;42058;52.308;20.924;2023-05-02T10:31:46;100642.03;;;22.57;47.93
56174;BME280;42058;52.308;20.924;2023-05-02T10:34:13;100647.68;;;22.53;47.69
56174;BME280;42058;52.308;20.924;2023-05-02T10:36:43;100649.45;;;22.45;47.64
56174;BME280;42058;52.308;20.924;2023-05-02T10:40:11;100659.50;;;22.35;47.42
56174;BME280;42058;52.308;20.924;2023-05-02T10:42:48;100667.08;;;22.27;47.80
56174;BME280;42058;52.308;20.924;2023-05-02T10:45:35;100667.95;;;22.19;48.11
56174;BME280;42058;52.308;20.924;2023-05-02T10:52:47;100683.32;;;21.89;48.13
56174;BME280;42058;52.308;20.924;2023-05-02T11:00:31;100704.12;;;21.48;50.25
56174;BME280;42058;52.308;20.924;2023-05-02T11:02:59;100706.72;;;21.33;50.81
56174;BME280;42058;52.308;20.924;2023-05-02T11:05:26;100711.75;;;21.19;51.51
56174;BME280;42058;52.308;20.924;2023-05-02T11:10:42;100719.38;;;20.90;52.81
56174;BME280;42058;52.308;20.924;2023-05-02T11:13:08;100721.41;;;20.78;53.94
56174;BME280;42058;52.308;20.924;2023-05-02T11:20:36;100747.57;;;20.52;57.26
56174;BME280;42058;52.308;20.924;2023-05-02T11:23:23;100747.17;;;20.45;57.78
56174;BME280;42058;52.308;20.924;2023-05-02T11:25:54;100755.59;;;20.35;58.53
56174;BME280;42058;52.308;20.924;2023-05-02T11:31:05;100768.45;;;20.11;59.42
56174;BME280;42058;52.308;20.924;2023-05-02T11:33:34;100775.39;;;20.03;60.57
56174;BME280;42058;52.308;20.924;2023-05-02T11:36:01;100779.65;;;19.94;61.40
56174;BME280;42058;52.308;20.924;2023-05-02T11:38:36;100782.42;;;19.87;62.83
56174;BME280;42058;52.308;20.924;2023-05-02T11:41:03;100779.16;;;19.78;63.06
56174;BME280;42058;52.308;20.924;2023-05-02T11:43:30;100783.98;;;19.72;64.43
56174;BME280;42058;52.308;20.924;2023-05-02T11:45:59;100782.39;;;19.65;64.36
56174;BME280;42058;52.308;20.924;2023-05-02T11:48:26;100786.34;;;19.59;64.80
56174;BME280;42058;52.308;20.924;2023-05-02T11:50:55;100793.56;;;19.54;64.95
56174;BME280;42058;52.308;20.924;2023-05-02T11:53:26;100793.23;;;19.50;64.94
56174;BME280;42058;52.308;20.924;2023-05-02T11:55:56;100795.41;;;19.47;65.68
56174;BME280;42058;52.308;20.924;2023-05-02T11:58:28;100789.22;;;19.43;65.33
56174;BME280;42058;52.308;20.924;2023-05-02T12:00:58;100793.25;;;19.41;65.31
56174;BME280;42058;52.308;20.924;2023-05-02T12:06:00;100800.52;;;19.45;68.05
56174;BME280;42058;52.308;20.924;2023-05-02T12:08:39;100801.20;;;19.54;70.94
56174;BME280;42058;52.308;20.924;2023-05-02T12:11:12;100802.58;;;19.64;70.57
56174;BME280;42058;52.308;20.924;2023-05-02T12:13:50;100804.23;;;19.76;70.46
56174;BME280;42058;52.308;20.924;2023-05-02T12:16:18;100796.61;;;19.90;71.03
56174;BME280;42058;52.308;20.924;2023-05-02T12:18:46;100794.05;;;20.04;70.47
56174;BME280;42058;52.308;20.924;2023-05-02T12:21:15;100794.84;;;20.14;68.26
56174;BME280;42058;52.308;20.924;2023-05-02T12:23:42;100799.52;;;20.22;67.02
56174;BME280;42058;52.308;20.924;2023-05-02T12:26:19;100800.60;;;20.28;65.54
56174;BME280;42058;52.308;20.924;2023-05-02T12:28:53;100801.80;;;20.32;64.53
56174;BME280;42058;52.308;20.924;2023-05-02T12:31:20;100802.93;;;20.33;62.94
56174;BME280;42058;52.308;20.924;2023-05-02T12:33:48;100806.73;;;20.35;61.36
56174;BME280;42058;52.308;20.924;2023-05-02T12:36:16;100805.48;;;20.35;60.65
56174;BME280;42058;52.308;20.924;2023-05-02T12:38:50;100808.98;;;20.36;59.99
56174;BME280;42058;52.308;20.924;2023-05-02T12:41:30;100806.88;;;20.36;59.41
56174;BME280;42058;52.308;20.924;2023-05-02T12:43:56;100808.05;;;20.34;58.32
56174;BME280;42058;52.308;20.924;2023-05-02T12:46:26;100810.17;;;20.32;57.12
56174;BME280;42058;52.308;20.924;2023-05-02T12:49:03;100807.65;;;20.29;56.40
56174;BME280;42058;52.308;20.924;2023-05-02T12:51:31;100812.59;;;20.27;56.05
56174;BME280;42058;52.308;20.924;2023-05-02T12:53:59;100810.70;;;20.23;55.59
56174;BME280;42058;52.308;20.924;2023-05-02T12:56:26;100813.88;;;20.21;54.92
56174;BME280;42058;52.308;20.924;2023-05-02T12:58:57;100814.88;;;20.19;54.76
56174;BME280;42058;52.308;20.924;2023-05-02T13:01:32;100813.26;;;20.16;54.26
56174;BME280;42058;52.308;20.924;2023-05-02T13:03:59;100815.39;;;20.16;54.26
56174;BME280;42058;52.308;20.924;2023-05-02T13:06:26;100817.74;;;20.15;53.76
56174;BME280;42058;52.308;20.924;2023-05-02T13:08:53;100817.73;;;20.15;53.70
56174;BME280;42058;52.308;20.924;2023-05-02T13:11:19;100822.45;;;20.17;53.94
56174;BME280;42058;52.308;20.924;2023-05-02T13:13:46;100825.80;;;20.18;53.51
56174;BME280;42058;52.308;20.924;2023-05-02T13:16:12;100827.27;;;20.20;53.16
56174;BME280;42058;52.308;20.924;2023-05-02T13:18:39;100827.88;;;20.25;53.50
56174;BME280;42058;52.308;20.924;2023-05-02T13:21:06;100830.05;;;20.30;53.24
56174;BME280;42058;52.308;20.924;2023-05-02T13:23:33;100828.00;;;20.34;52.54
56174;BME280;42058;52.308;20.924;2023-05-02T13:26:01;100829.51;;;20.39;52.06
56174;BME280;42058;52.308;20.924;2023-05-02T13:28:39;100828.48;;;20.44;52.27